KLM207 EHAM-KJFK
Flight info
| Callsign | KLM207 |
|---|---|
| Flight time | N/A |
| Altitude | 32000 |
| Route | BERGI L602 NALAX L46 GETNO/N0483F340 DCT KUGUR DCT SUNOT/M083F350 NATE HOIST/N0481F360 N748B QUBIS DCT ENE PARCH4 |
| Aircraft | B77W/H-SDE1E2E3FGHIJ2J3J4J5M1RWXY/LB1D1 |
Departure
| Time | 2026-04-17 13:38 |
|---|---|
| Airport | Amsterdam Airport Schiphol (EHAM) |
Arrival
| Time | N/A |
|---|---|
| Airport | John F. Kennedy International Airport (KJFK) |
| Time | Latitude | Longitude | Altitude | Speed | Heading |
|---|---|---|---|---|---|
| 2026-04-17 13:02 | 52.31380 | 4.76733 | 5 ft | 0 kts | 123° |
| 2026-04-17 13:24 | 52.31382 | 4.76727 | 5 ft | 2 kts | 123° |
| 2026-04-17 13:25 | 52.31390 | 4.76707 | 5 ft | 2 kts | 123° |
| 2026-04-17 13:25 | 52.31397 | 4.76689 | 5 ft | 0 kts | 123° |
| 2026-04-17 13:25 | 52.31403 | 4.76673 | 5 ft | 2 kts | 114° |
| 2026-04-17 13:25 | 52.31408 | 4.76650 | 5 ft | 2 kts | 93° |
| 2026-04-17 13:26 | 52.31407 | 4.76626 | 5 ft | 2 kts | 77° |
| 2026-04-17 13:26 | 52.31402 | 4.76603 | 5 ft | 2 kts | 60° |
| 2026-04-17 13:26 | 52.31393 | 4.76583 | 5 ft | 2 kts | 43° |
| 2026-04-17 13:26 | 52.31385 | 4.76573 | 5 ft | 1 kts | 33° |
| 2026-04-17 13:27 | 52.31384 | 4.76572 | 5 ft | 0 kts | 33° |
| 2026-04-17 13:29 | 52.31385 | 4.76573 | 5 ft | 0 kts | 33° |
| 2026-04-17 13:30 | 52.31408 | 4.76597 | 5 ft | 7 kts | 33° |
| 2026-04-17 13:30 | 52.31456 | 4.76660 | 5 ft | 9 kts | 51° |
| 2026-04-17 13:30 | 52.31473 | 4.76767 | 5 ft | 10 kts | 86° |
| 2026-04-17 13:30 | 52.31478 | 4.76896 | 5 ft | 12 kts | 87° |
| 2026-04-17 13:31 | 52.31482 | 4.77049 | 5 ft | 13 kts | 91° |
| 2026-04-17 13:31 | 52.31461 | 4.77185 | 5 ft | 12 kts | 123° |
| 2026-04-17 13:31 | 52.31408 | 4.77294 | 5 ft | 13 kts | 131° |
| 2026-04-17 13:31 | 52.31338 | 4.77425 | 5 ft | 15 kts | 132° |
| 2026-04-17 13:32 | 52.31247 | 4.77499 | 5 ft | 14 kts | 172° |
| 2026-04-17 13:32 | 52.31150 | 4.77499 | 5 ft | 14 kts | 183° |
| 2026-04-17 13:32 | 52.31049 | 4.77488 | 5 ft | 14 kts | 184° |
| 2026-04-17 13:32 | 52.30957 | 4.77479 | 5 ft | 12 kts | 183° |
| 2026-04-17 13:33 | 52.30877 | 4.77471 | 5 ft | 11 kts | 184° |
| 2026-04-17 13:33 | 52.30799 | 4.77464 | 5 ft | 10 kts | 183° |
| 2026-04-17 13:33 | 52.30726 | 4.77458 | 5 ft | 11 kts | 182° |
| 2026-04-17 13:33 | 52.30649 | 4.77483 | 5 ft | 11 kts | 159° |
| 2026-04-17 13:34 | 52.30584 | 4.77532 | 5 ft | 7 kts | 154° |
| 2026-04-17 13:34 | 52.30524 | 4.77581 | 5 ft | 11 kts | 154° |
| 2026-04-17 13:34 | 52.30480 | 4.77616 | 5 ft | 8 kts | 154° |
| 2026-04-17 13:34 | 52.30428 | 4.77634 | 5 ft | 7 kts | 200° |
| 2026-04-17 13:35 | 52.30403 | 4.77600 | 5 ft | 0 kts | 233° |
| 2026-04-17 13:35 | 52.30402 | 4.77599 | 5 ft | 0 kts | 232° |
| 2026-04-17 13:35 | 52.30397 | 4.77588 | 5 ft | 0 kts | 236° |
| 2026-04-17 13:36 | 52.30395 | 4.77584 | 5 ft | 2 kts | 236° |
| 2026-04-17 13:37 | 52.30366 | 4.77510 | 5 ft | 18 kts | 238° |
| 2026-04-17 13:37 | 52.30185 | 4.77041 | 5 ft | 87 kts | 237° |
| 2026-04-17 13:37 | 52.29736 | 4.75866 | 6 ft | 156 kts | 238° |
| 2026-04-17 13:37 | 52.29097 | 4.74186 | 428 ft | 181 kts | 237° |
| 2026-04-17 13:38 | 52.28444 | 4.72505 | 1397 ft | 176 kts | 237° |
| 2026-04-17 13:38 | 52.27783 | 4.70797 | 1996 ft | 187 kts | 237° |
| 2026-04-17 13:38 | 52.26912 | 4.69113 | 2525 ft | 203 kts | 224° |
| 2026-04-17 13:38 | 52.25872 | 4.67467 | 3122 ft | 218 kts | 224° |
| 2026-04-17 13:39 | 52.24772 | 4.65658 | 3749 ft | 234 kts | 232° |
| 2026-04-17 13:39 | 52.23979 | 4.63279 | 4350 ft | 252 kts | 249° |
| 2026-04-17 13:39 | 52.23412 | 4.60522 | 5085 ft | 263 kts | 254° |
| 2026-04-17 13:39 | 52.23266 | 4.57558 | 5920 ft | 270 kts | 278° |
| 2026-04-17 13:40 | 52.23926 | 4.54680 | 6771 ft | 277 kts | 303° |
| 2026-04-17 13:40 | 52.25296 | 4.52495 | 7618 ft | 283 kts | 325° |
| 2026-04-17 13:40 | 52.26968 | 4.50804 | 8544 ft | 286 kts | 329° |
| 2026-04-17 13:40 | 52.28664 | 4.49166 | 9437 ft | 289 kts | 329° |
| 2026-04-17 13:41 | 52.30295 | 4.47258 | 10290 ft | 293 kts | 320° |
| 2026-04-17 13:41 | 52.31869 | 4.45045 | 10866 ft | 308 kts | 319° |
| 2026-04-17 13:41 | 52.33520 | 4.42685 | 11383 ft | 324 kts | 318° |
| 2026-04-17 13:41 | 52.35239 | 4.40218 | 11911 ft | 339 kts | 317° |
| 2026-04-17 13:42 | 52.37051 | 4.37620 | 12458 ft | 354 kts | 317° |
| 2026-04-17 13:42 | 52.38943 | 4.34900 | 13030 ft | 369 kts | 316° |
| 2026-04-17 13:42 | 52.40894 | 4.32093 | 13693 ft | 381 kts | 316° |
| 2026-04-17 13:42 | 52.42881 | 4.29233 | 14552 ft | 386 kts | 316° |
| 2026-04-17 13:43 | 52.44897 | 4.26328 | 15566 ft | 389 kts | 315° |
| 2026-04-17 13:43 | 52.46916 | 4.23416 | 16600 ft | 391 kts | 315° |
| 2026-04-17 13:43 | 52.48949 | 4.20479 | 17400 ft | 396 kts | 315° |
| 2026-04-17 13:43 | 52.51024 | 4.17475 | 18159 ft | 402 kts | 315° |
| 2026-04-17 13:44 | 52.53112 | 4.14449 | 18931 ft | 406 kts | 315° |
| 2026-04-17 13:44 | 52.55213 | 4.11401 | 19744 ft | 409 kts | 315° |
| 2026-04-17 13:44 | 52.57350 | 4.08297 | 20516 ft | 413 kts | 315° |
| 2026-04-17 13:44 | 52.59496 | 4.05175 | 21229 ft | 417 kts | 315° |
| 2026-04-17 13:45 | 52.61671 | 4.02006 | 21967 ft | 421 kts | 314° |
| 2026-04-17 13:45 | 52.63856 | 3.98819 | 22676 ft | 424 kts | 314° |
| 2026-04-17 13:45 | 52.66083 | 3.95565 | 23354 ft | 428 kts | 314° |
| 2026-04-17 13:45 | 52.68308 | 3.92312 | 23999 ft | 433 kts | 314° |
| 2026-04-17 13:46 | 52.70560 | 3.89010 | 24184 ft | 436 kts | 314° |
| 2026-04-17 13:46 | 52.72798 | 3.85729 | 24186 ft | 435 kts | 314° |
| 2026-04-17 13:46 | 52.75077 | 3.82384 | 24177 ft | 434 kts | 314° |
| 2026-04-17 13:46 | 52.77336 | 3.79059 | 24433 ft | 444 kts | 314° |
| 2026-04-17 13:47 | 52.79638 | 3.75668 | 25279 ft | 442 kts | 314° |
| 2026-04-17 13:47 | 52.81889 | 3.72351 | 26165 ft | 440 kts | 314° |
| 2026-04-17 13:47 | 52.84162 | 3.68993 | 26837 ft | 442 kts | 314° |
| 2026-04-17 13:47 | 52.86459 | 3.65593 | 27328 ft | 448 kts | 314° |
| 2026-04-17 13:48 | 52.88784 | 3.62146 | 27866 ft | 452 kts | 314° |
| 2026-04-17 13:48 | 52.91121 | 3.58679 | 28498 ft | 454 kts | 314° |
| 2026-04-17 13:48 | 52.93488 | 3.55161 | 29130 ft | 456 kts | 314° |
| 2026-04-17 13:48 | 52.95834 | 3.51670 | 29693 ft | 459 kts | 314° |
| 2026-04-17 13:49 | 52.98190 | 3.48160 | 30366 ft | 459 kts | 313° |
| 2026-04-17 13:49 | 53.00539 | 3.44657 | 31152 ft | 455 kts | 313° |
| 2026-04-17 13:49 | 53.02893 | 3.41140 | 31904 ft | 452 kts | 313° |
| 2026-04-17 13:49 | 53.05228 | 3.37637 | 32148 ft | 454 kts | 312° |
| 2026-04-17 13:50 | 53.09066 | 3.29677 | 32163 ft | 438 kts | 295° |
| 2026-04-17 13:50 | 53.11318 | 3.20380 | 32159 ft | 432 kts | 280° |
| 2026-04-17 13:51 | 53.12669 | 3.10650 | 32158 ft | 430 kts | 279° |
| 2026-04-17 13:51 | 53.13971 | 3.00944 | 32156 ft | 429 kts | 279° |
| 2026-04-17 13:52 | 53.15249 | 2.91269 | 32153 ft | 430 kts | 279° |
| 2026-04-17 13:52 | 53.16514 | 2.81587 | 32154 ft | 428 kts | 279° |
| 2026-04-17 13:53 | 53.17760 | 2.71964 | 32146 ft | 428 kts | 278° |
| 2026-04-17 13:53 | 53.19001 | 2.62295 | 32148 ft | 429 kts | 278° |
| 2026-04-17 13:54 | 53.20860 | 2.47690 | 32139 ft | 429 kts | 278° |
| 2026-04-17 13:55 | 53.22686 | 2.33183 | 32139 ft | 427 kts | 277° |
| 2026-04-17 13:56 | 53.25091 | 2.13830 | 32137 ft | 429 kts | 277° |
| 2026-04-17 13:56 | 53.26291 | 2.04080 | 32132 ft | 428 kts | 277° |
| 2026-04-17 13:57 | 53.27472 | 1.94398 | 32126 ft | 429 kts | 277° |
| 2026-04-17 13:58 | 53.29245 | 1.79748 | 32123 ft | 428 kts | 277° |
| 2026-04-17 13:58 | 53.30983 | 1.65228 | 32120 ft | 429 kts | 276° |
| 2026-04-17 13:59 | 53.32715 | 1.50603 | 32111 ft | 427 kts | 277° |
| 2026-04-17 14:00 | 53.34090 | 1.41006 | 32109 ft | 429 kts | 278° |
| 2026-04-17 14:00 | 53.35525 | 1.31261 | 32112 ft | 431 kts | 278° |
| 2026-04-17 14:01 | 53.36923 | 1.21638 | 32110 ft | 428 kts | 278° |
| 2026-04-17 14:01 | 53.38321 | 1.11909 | 32105 ft | 429 kts | 277° |
| 2026-04-17 14:02 | 53.39696 | 1.02270 | 32099 ft | 428 kts | 277° |
| 2026-04-17 14:02 | 53.41065 | 0.92601 | 32096 ft | 428 kts | 277° |
| 2026-04-17 14:03 | 53.42424 | 0.82934 | 32094 ft | 428 kts | 277° |
| 2026-04-17 14:03 | 53.43778 | 0.73236 | 32092 ft | 427 kts | 277° |
| 2026-04-17 14:04 | 53.45124 | 0.63530 | 32079 ft | 428 kts | 277° |
| 2026-04-17 14:04 | 53.46237 | 0.55469 | 32079 ft | 426 kts | 277° |
| 2026-04-17 14:05 | 53.47564 | 0.45785 | 32077 ft | 428 kts | 276° |
| 2026-04-17 14:05 | 53.49106 | 0.34457 | 32075 ft | 428 kts | 276° |
| 2026-04-17 14:06 | 53.50417 | 0.24749 | 32075 ft | 427 kts | 276° |
| 2026-04-17 14:06 | 53.51718 | 0.15061 | 32077 ft | 426 kts | 275° |
| 2026-04-17 14:07 | 53.53008 | 0.05383 | 32070 ft | 429 kts | 275° |
| 2026-04-17 14:07 | 53.54300 | -0.04374 | 32062 ft | 429 kts | 275° |
| 2026-04-17 14:08 | 53.55584 | -0.14127 | 32065 ft | 427 kts | 275° |
| 2026-04-17 14:08 | 53.56847 | -0.23799 | 32060 ft | 428 kts | 275° |
| 2026-04-17 14:09 | 53.58115 | -0.33572 | 32059 ft | 427 kts | 275° |
| 2026-04-17 14:09 | 53.59374 | -0.43337 | 32061 ft | 429 kts | 275° |
| 2026-04-17 14:10 | 53.60620 | -0.53069 | 32052 ft | 427 kts | 274° |
| 2026-04-17 14:10 | 53.61863 | -0.62848 | 32055 ft | 426 kts | 275° |
| 2026-04-17 14:11 | 53.63089 | -0.72570 | 32054 ft | 426 kts | 274° |
| 2026-04-17 14:11 | 53.64304 | -0.82259 | 32050 ft | 427 kts | 273° |
| 2026-04-17 14:12 | 53.65521 | -0.92040 | 32036 ft | 426 kts | 273° |
| 2026-04-17 14:12 | 53.66720 | -1.01740 | 32033 ft | 423 kts | 273° |
| 2026-04-17 14:13 | 53.68509 | -1.16356 | 32027 ft | 424 kts | 273° |
| 2026-04-17 14:13 | 53.69687 | -1.26072 | 32021 ft | 426 kts | 272° |
| 2026-04-17 14:14 | 53.70866 | -1.35855 | 32021 ft | 425 kts | 273° |
| 2026-04-17 14:14 | 53.72025 | -1.45552 | 32021 ft | 426 kts | 272° |
| 2026-04-17 14:15 | 53.73183 | -1.55293 | 32015 ft | 421 kts | 272° |
| 2026-04-17 14:15 | 53.74289 | -1.65044 | 32016 ft | 425 kts | 271° |
| 2026-04-17 14:16 | 53.75352 | -1.74832 | 32021 ft | 423 kts | 270° |
| 2026-04-17 14:16 | 53.76403 | -1.84573 | 32020 ft | 421 kts | 271° |
| 2026-04-17 14:17 | 53.77448 | -1.94332 | 32015 ft | 424 kts | 270° |
| 2026-04-17 14:17 | 53.78487 | -2.04083 | 32012 ft | 422 kts | 270° |
| 2026-04-17 14:18 | 53.79513 | -2.13787 | 32003 ft | 421 kts | 270° |
| 2026-04-17 14:18 | 53.80534 | -2.23535 | 32003 ft | 423 kts | 270° |
| 2026-04-17 14:19 | 53.81545 | -2.33250 | 32001 ft | 419 kts | 270° |